Time;durP1;ratioP1;P1;durP2;ratioP2;P2;SDS_P1;SDS_P2;PMS_P1;PMS_P2;Temp;Humidity;BMP_temperature;BMP_pressure;BME280_temperature;BME280_humidity;BME280_pressure;Samples;Min_cycle;Max_cycle;Signal;HPM_P1;HPM_P2
2020/12/19 00:00:10;;;;;;;16.27;13.33;;;7.70;99.90;;;6.11;100.00;101385.06;5022183;28;20215;-80
2020/12/19 00:02:55;;;;;;;17.27;13.27;;;7.70;99.90;;;6.02;100.00;101392.72;5022900;28;20765;-82
2020/12/19 00:05:40;;;;;;;18.77;12.27;;;7.70;99.90;;;6.06;100.00;101384.19;5033685;28;20296;-82
2020/12/19 00:08:25;;;;;;;18.23;14.10;;;7.70;99.90;;;6.15;100.00;101371.34;5005247;28;20213;-82
2020/12/19 00:11:10;;;;;;;18.73;11.47;;;7.70;99.90;;;6.06;100.00;101394.44;5018466;28;20236;-80
2020/12/19 00:13:56;;;;;;;19.83;13.80;;;7.70;99.90;;;5.95;100.00;101379.00;5021675;28;20582;-83
2020/12/19 00:16:42;;;;;;;21.60;13.73;;;7.60;99.90;;;5.89;100.00;101383.25;5017578;28;20220;-82
2020/12/19 00:19:27;;;;;;;19.80;14.50;;;7.70;99.90;;;5.87;100.00;101374.69;5008334;28;20276;-82
2020/12/19 00:22:12;;;;;;;20.33;14.33;;;7.70;99.90;;;5.88;100.00;101378.97;5007283;28;20599;-82
2020/12/19 00:24:57;;;;;;;18.37;13.97;;;7.60;99.90;;;5.83;100.00;101367.81;5016130;28;20258;-81
2020/12/19 00:27:47;;;;;;;19.53;13.77;;;7.60;99.90;;;6.04;100.00;101362.78;5025364;28;20271;-81
2020/12/19 00:30:33;;;;;;;20.97;14.00;;;7.60;99.90;;;5.97;100.00;101364.47;5014322;28;20211;-81
2020/12/19 00:33:19;;;;;;;21.77;13.73;;;7.60;99.90;;;6.03;100.00;101370.47;5032174;28;20255;-82
2020/12/19 00:36:04;;;;;;;20.03;14.77;;;7.60;99.90;;;5.95;100.00;101347.34;5033566;28;20220;-83
2020/12/19 00:38:50;;;;;;;21.43;14.13;;;7.60;99.90;;;6.06;100.00;101352.50;5021105;28;20290;-83
2020/12/19 00:41:35;;;;;;;20.83;15.37;;;7.60;99.90;;;6.10;100.00;101346.53;5017549;28;20304;-82
2020/12/19 00:44:20;;;;;;;22.47;14.57;;;7.60;99.90;;;6.05;100.00;101343.09;5017955;28;20297;-82
2020/12/19 00:47:06;;;;;;;21.73;13.63;;;7.60;99.90;;;6.06;100.00;101345.66;5022014;28;20277;-82
2020/12/19 00:49:52;;;;;;;22.93;13.93;;;7.60;99.90;;;6.07;100.00;101331.13;5003104;28;20580;-82
2020/12/19 00:52:37;;;;;;;20.20;16.10;;;7.60;99.90;;;6.05;100.00;101336.22;5007920;28;20232;-82
2020/12/19 00:55:22;;;;;;;20.03;12.50;;;7.60;99.90;;;6.03;100.00;101339.66;5012267;28;20262;-80
2020/12/19 00:58:07;;;;;;;22.50;14.77;;;7.60;99.90;;;5.96;100.00;101334.50;5002004;28;20240;-83
2020/12/19 01:00:52;;;;;;;20.00;15.10;;;7.60;99.90;;;5.98;100.00;101329.41;5015949;28;20216;-82
2020/12/19 01:03:38;;;;;;;20.53;14.20;;;7.60;99.90;;;5.92;100.00;101317.38;5013298;28;20208;-80
2020/12/19 01:06:26;;;;;;;22.90;15.00;;;7.60;99.90;;;6.01;100.00;101310.53;5023417;28;20228;-82
2020/12/19 01:09:11;;;;;;;19.30;13.60;;;7.60;99.90;;;5.86;100.00;101319.91;5024487;28;20287;-81
2020/12/19 01:11:56;;;;;;;20.03;13.63;;;7.60;99.90;;;5.97;100.00;101307.13;5013757;28;20596;-81
2020/12/19 01:14:42;;;;;;;23.33;14.57;;;7.60;99.90;;;6.10;100.00;101313.13;5022424;28;20220;-83
2020/12/19 01:17:27;;;;;;;21.20;14.73;;;7.60;99.90;;;6.04;100.00;101313.97;5024529;28;20228;-82
2020/12/19 01:20:12;;;;;;;21.93;16.77;;;7.60;99.90;;;6.15;100.00;101314.84;5021179;28;20243;-80
2020/12/19 01:22:58;;;;;;;20.73;15.50;;;7.60;99.90;;;6.18;100.00;101313.13;5009526;28;20220;-81
2020/12/19 01:25:43;;;;;;;18.10;13.53;;;7.60;99.90;;;6.04;100.00;101315.69;5030850;28;20204;-81
2020/12/19 01:28:29;;;;;;;22.20;15.73;;;7.60;99.90;;;6.04;100.00;101319.13;5022862;28;20228;-82
2020/12/19 01:31:17;;;;;;;21.63;14.73;;;7.60;99.90;;;6.14;100.00;101322.53;5029323;28;20686;-83
2020/12/19 01:34:03;;;;;;;22.60;15.33;;;7.60;99.90;;;5.97;100.00;101323.38;5020403;28;20262;-82
2020/12/19 01:36:48;;;;;;;19.47;14.77;;;7.60;99.90;;;6.10;100.00;101328.56;5020261;28;20260;-82
2020/12/19 01:39:34;;;;;;;22.53;13.93;;;7.50;99.90;;;5.95;100.00;101314.78;5026719;28;20216;-82
2020/12/19 01:42:19;;;;;;;24.13;16.67;;;7.60;99.90;;;5.89;100.00;101312.22;5035191;28;20247;-81
2020/12/19 01:45:05;;;;;;;21.50;13.53;;;7.60;99.90;;;5.94;100.00;101310.50;5027749;28;20215;-83
2020/12/19 01:47:54;;;;;;;19.83;12.87;;;7.50;99.90;;;5.94;100.00;101305.38;5029124;28;20266;-82
2020/12/19 01:50:39;;;;;;;21.67;15.33;;;7.60;99.90;;;5.95;100.00;101301.13;5038379;28;20204;-81
2020/12/19 01:53:25;;;;;;;21.50;14.33;;;7.50;99.90;;;6.04;100.00;101301.16;5006583;28;20216;-82
2020/12/19 01:56:11;;;;;;;22.50;14.33;;;7.60;99.90;;;6.09;100.00;101285.72;5022580;28;20211;-83
2020/12/19 01:58:56;;;;;;;23.07;14.07;;;7.50;99.90;;;5.92;100.00;101288.25;5012211;28;20622;-82
2020/12/19 02:01:44;;;;;;;20.97;14.10;;;7.60;99.90;;;5.95;100.00;101288.28;5020536;28;20299;-82
2020/12/19 02:04:30;;;;;;;23.37;14.70;;;7.50;99.90;;;6.04;100.00;101285.72;5041052;28;20218;-84
2020/12/19 02:07:17;;;;;;;24.83;16.83;;;7.60;99.90;;;6.09;100.00;101284.00;5024886;28;20380;-83
2020/12/19 02:10:02;;;;;;;25.10;15.70;;;7.50;99.90;;;6.16;100.00;101279.75;5019583;28;20207;-82
2020/12/19 02:12:48;;;;;;;25.73;17.50;;;7.60;99.90;;;6.07;100.00;101278.03;5011161;28;20264;-82
2020/12/19 02:15:41;;;;;;;20.43;14.23;;;7.60;99.90;;;6.14;100.00;101276.31;5008981;28;20208;-81
2020/12/19 02:18:25;;;;;;;23.23;14.27;;;7.50;99.90;;;6.13;100.00;101284.88;5005121;28;20256;-82
2020/12/19 02:21:11;;;;;;;19.07;11.70;;;7.60;99.90;;;6.21;100.00;101278.03;5012853;28;20235;-81
2020/12/19 02:23:57;;;;;;;23.97;15.63;;;7.60;99.90;;;6.21;100.00;101278.03;5011711;28;20589;-80
2020/12/19 02:26:46;;;;;;;21.43;15.00;;;7.50;99.90;;;6.20;100.00;101266.06;5019107;28;20599;-81
2020/12/19 02:29:32;;;;;;;19.60;14.47;;;7.60;99.90;;;6.15;100.00;101273.72;5024772;28;20209;-83
2020/12/19 02:32:17;;;;;;;20.57;14.17;;;7.60;99.90;;;6.11;100.00;101272.03;5025246;28;20287;-83
2020/12/19 02:35:03;;;;;;;19.47;14.27;;;7.60;99.90;;;6.19;100.00;101271.19;5022946;28;20279;-81
2020/12/19 02:37:48;;;;;;;18.33;13.10;;;7.60;99.90;;;6.03;100.00;101280.59;5014882;28;20212;-80
2020/12/19 02:40:34;;;;;;;22.33;15.87;;;7.60;99.90;;;6.22;100.00;101273.75;5019869;28;20813;-83
2020/12/19 02:43:19;;;;;;;21.57;14.60;;;7.60;99.90;;;6.23;100.00;101260.91;5021123;28;20232;-79
2020/12/19 02:46:04;;;;;;;21.97;13.57;;;7.60;99.90;;;6.18;100.00;101262.59;5025228;28;20577;-82
2020/12/19 02:48:50;;;;;;;22.67;14.33;;;7.60;99.90;;;6.26;100.00;101263.47;5038366;28;20761;-83
2020/12/19 02:51:36;;;;;;;21.40;14.77;;;7.60;99.90;;;6.42;100.00;101245.47;5027687;28;20227;-80
2020/12/19 02:54:21;;;;;;;19.57;14.00;;;7.60;99.90;;;6.36;100.00;101256.59;5018428;28;20212;-81
2020/12/19 02:57:07;;;;;;;20.93;13.80;;;7.60;99.90;;;6.41;100.00;101256.63;5023501;28;20774;-83
2020/12/19 02:59:52;;;;;;;23.43;15.70;;;7.60;99.90;;;6.36;100.00;101259.16;5013174;28;20228;-82
2020/12/19 03:02:37;;;;;;;19.70;13.87;;;7.60;99.90;;;6.40;100.00;101247.19;5007756;28;20259;-82
2020/12/19 03:05:22;;;;;;;17.57;10.87;;;7.70;99.90;;;6.23;100.00;101252.31;5023008;28;20218;-82
2020/12/19 03:08:08;;;;;;;22.17;14.97;;;7.70;99.90;;;6.15;100.00;101239.50;5016500;28;20231;-81
2020/12/19 03:10:53;;;;;;;25.70;15.57;;;7.70;99.90;;;6.03;100.00;101247.22;5008820;28;20830;-80
2020/12/19 03:13:39;;;;;;;24.13;16.30;;;7.70;99.90;;;6.25;100.00;101245.50;5010022;28;20690;-82
2020/12/19 03:16:24;;;;;;;22.23;16.10;;;7.70;99.90;;;6.33;100.00;101254.03;5014690;28;20200;-82
2020/12/19 03:19:09;;;;;;;20.83;14.20;;;7.70;99.90;;;6.12;100.00;101242.06;5031918;28;20207;-81
2020/12/19 03:21:55;;;;;;;19.97;12.80;;;7.70;99.90;;;6.06;100.00;101248.06;5023767;28;20308;-79
2020/12/19 03:24:40;;;;;;;19.17;13.67;;;7.70;99.90;;;5.99;100.00;101240.34;5039422;28;20238;-83
2020/12/19 03:27:25;;;;;;;24.30;16.00;;;7.70;99.90;;;6.08;100.00;101240.34;5023266;28;20232;-83
2020/12/19 03:30:12;;;;;;;21.90;15.73;;;7.70;99.90;;;6.15;100.00;101235.19;5007764;28;20292;-83
2020/12/19 03:32:57;;;;;;;22.90;14.80;;;7.70;99.90;;;6.20;100.00;101235.22;5018521;28;20251;-82
2020/12/19 03:35:42;;;;;;;21.13;16.13;;;7.70;99.90;;;6.24;100.00;101223.22;5012278;28;20216;-81
2020/12/19 03:38:27;;;;;;;21.60;14.57;;;7.70;99.90;;;6.20;100.00;101214.69;5008277;28;20216;-82
2020/12/19 03:41:13;;;;;;;19.23;12.83;;;7.70;99.90;;;6.12;100.00;101216.38;5008569;28;20233;-82
2020/12/19 03:43:57;;;;;;;26.23;16.20;;;7.70;99.90;;;6.17;100.00;101208.66;5013288;28;20216;-80
2020/12/19 03:46:43;;;;;;;22.43;14.57;;;7.70;99.90;;;6.11;100.00;101199.25;5006291;28;20211;-82
2020/12/19 03:49:29;;;;;;;20.80;14.70;;;7.70;99.90;;;6.20;100.00;101200.97;5022159;28;20204;-83
2020/12/19 03:52:14;;;;;;;23.53;16.17;;;7.70;99.90;;;6.30;100.00;101193.25;5016092;28;20232;-80
2020/12/19 03:55:00;;;;;;;22.97;16.17;;;7.70;99.90;;;6.31;100.00;101192.38;5033896;28;20271;-81
2020/12/19 03:57:45;;;;;;;22.37;15.97;;;7.70;99.90;;;6.20;100.00;101185.53;5022581;28;20554;-82
2020/12/19 04:00:30;;;;;;;22.70;14.67;;;7.70;99.90;;;6.20;100.00;101186.41;5028224;28;20222;-78
2020/12/19 04:03:16;;;;;;;21.30;17.03;;;7.70;99.90;;;6.30;100.00;101180.41;5030219;28;20216;-82
2020/12/19 04:06:01;;;;;;;17.93;11.33;;;7.70;99.90;;;6.31;100.00;101174.38;5030260;28;20258;-82
2020/12/19 04:08:47;;;;;;;19.77;13.87;;;7.70;99.90;;;6.26;100.00;101180.38;5029446;28;20231;-82
2020/12/19 04:11:32;;;;;;;20.37;15.33;;;7.70;99.90;;;6.36;100.00;101161.53;5022940;28;20263;-84
2020/12/19 04:14:17;;;;;;;23.07;15.97;;;7.70;99.90;;;6.43;100.00;101159.81;5022128;28;20219;-81
2020/12/19 04:17:02;;;;;;;19.07;11.57;;;7.70;99.90;;;6.51;100.00;101158.09;5034137;28;20216;-83
2020/12/19 04:19:48;;;;;;;19.37;14.80;;;7.70;99.90;;;6.46;100.00;101162.38;5026297;28;20540;-82
2020/12/19 04:22:34;;;;;;;20.87;15.20;;;7.70;99.90;;;6.42;100.00;101164.09;5029835;28;20231;-80
2020/12/19 04:25:19;;;;;;;20.83;13.50;;;7.70;99.90;;;6.37;100.00;101154.69;5005206;28;20277;-82
2020/12/19 04:28:04;;;;;;;20.53;15.13;;;7.70;99.90;;;6.37;100.00;101154.69;5004880;28;20750;-83
2020/12/19 04:30:50;;;;;;;21.13;14.63;;;7.80;99.90;;;6.21;100.00;101162.41;5019167;28;20220;-82
2020/12/19 04:33:35;;;;;;;18.77;14.23;;;7.70;99.90;;;6.24;100.00;101164.13;5009959;28;20280;-82
2020/12/19 04:36:21;;;;;;;20.77;13.30;;;7.80;99.90;;;6.28;100.00;101156.41;5026988;28;20260;-82
2020/12/19 04:39:07;;;;;;;19.83;14.07;;;7.80;99.90;;;6.25;100.00;101156.44;5018740;28;20243;-82
2020/12/19 04:41:52;;;;;;;21.10;15.00;;;7.80;99.90;;;6.38;100.00;101164.09;5024628;28;20242;-83
2020/12/19 04:44:38;;;;;;;22.03;13.93;;;7.80;99.90;;;6.37;100.00;101154.69;5007205;28;20216;-82
2020/12/19 04:47:23;;;;;;;21.50;13.27;;;7.80;99.90;;;6.39;100.00;101158.09;5025695;28;20223;-80
2020/12/19 04:50:08;;;;;;;17.87;12.37;;;7.80;99.90;;;6.29;100.00;101147.84;5024961;28;20229;-82
2020/12/19 04:52:54;;;;;;;20.10;13.40;;;7.80;99.90;;;6.20;100.00;101149.59;5032040;28;20231;-80
2020/12/19 04:55:41;;;;;;;17.93;11.70;;;7.80;99.90;;;6.25;100.00;101141.00;5016439;28;20216;-80
2020/12/19 04:58:26;;;;;;;21.07;13.87;;;7.80;99.90;;;6.34;100.00;101137.56;5013813;28;20262;-82
2020/12/19 05:01:11;;;;;;;20.47;12.57;;;7.80;99.90;;;6.20;100.00;101132.47;5004534;28;20289;-82
2020/12/19 05:03:58;;;;;;;18.77;13.97;;;7.80;99.90;;;6.31;100.00;101124.72;5011246;28;20207;-82
2020/12/19 05:06:42;;;;;;;18.33;12.43;;;7.80;99.90;;;6.20;100.00;101126.47;5012978;28;20220;-80
2020/12/19 05:09:29;;;;;;;19.80;13.47;;;7.80;99.90;;;6.30;100.00;101121.31;5017711;28;20235;-83
2020/12/19 05:12:14;;;;;;;19.70;14.33;;;7.80;99.90;;;6.35;100.00;101125.56;5028407;28;20286;-80
2020/12/19 05:14:59;;;;;;;19.20;12.77;;;7.80;99.90;;;6.33;100.00;101120.44;5013697;28;20725;-82
2020/12/19 05:17:52;;;;;;;22.30;12.33;;;7.80;99.90;;;6.30;100.00;101129.03;5030104;28;20207;-81
2020/12/19 05:20:38;;;;;;;20.60;14.17;;;7.80;99.90;;;6.27;100.00;101120.44;5022690;28;20211;-81
2020/12/19 05:23:25;;;;;;;17.90;12.70;;;7.80;99.90;;;6.34;100.00;101121.31;5018467;28;20212;-82
2020/12/19 05:26:13;;;;;;;20.97;13.77;;;7.80;99.90;;;6.17;100.00;101114.50;5010455;28;20232;-81
2020/12/19 05:29:00;;;;;;;20.37;13.57;;;7.80;99.90;;;6.10;100.00;101121.34;5023796;28;20212;-79
2020/12/19 05:31:51;;;;;;;19.00;12.43;;;7.80;99.90;;;6.12;100.00;101116.22;5010053;28;20270;-81
2020/12/19 05:34:38;;;;;;;20.50;12.10;;;7.70;99.90;;;6.03;100.00;101116.25;5004435;28;20220;-82
2020/12/19 05:37:23;;;;;;;17.77;12.37;;;7.70;99.90;;;6.09;100.00;101118.78;5005442;28;20217;-83
2020/12/19 05:40:11;;;;;;;17.67;12.37;;;7.70;99.90;;;6.04;100.00;101112.78;5022228;28;20225;-83
2020/12/19 05:42:58;;;;;;;17.90;12.13;;;7.70;99.90;;;6.02;100.00;101107.66;5018556;28;20311;-81
2020/12/19 05:45:42;;;;;;;18.87;10.03;;;7.70;99.90;;;6.15;100.00;101100.78;5013927;28;20229;-82
2020/12/19 05:48:28;;;;;;;17.83;13.13;;;7.70;99.90;;;6.19;100.00;101106.78;5025072;28;20203;-82
2020/12/19 05:51:13;;;;;;;17.17;10.20;;;7.70;99.90;;;6.24;100.00;101105.91;5022427;28;20235;-82
2020/12/19 05:54:02;;;;;;;19.50;13.43;;;7.70;99.90;;;6.42;100.00;101111.84;5008306;28;20325;-82
2020/12/19 05:56:48;;;;;;;17.83;13.40;;;7.70;99.90;;;6.36;100.00;101107.56;5014994;28;20215;-82
2020/12/19 05:59:35;;;;;;;17.50;11.70;;;7.70;99.90;;;6.30;100.00;101113.59;5011184;28;20797;-82
2020/12/19 06:02:21;;;;;;;18.33;11.97;;;7.70;99.90;;;6.42;100.00;101106.69;5015981;28;20821;-81
2020/12/19 06:05:09;;;;;;;16.60;11.43;;;7.70;99.90;;;6.47;100.00;101105.81;5023158;28;20208;-82
2020/12/19 06:07:55;;;;;;;17.70;12.17;;;7.70;99.90;;;6.34;100.00;101109.31;5015885;28;20721;-82
2020/12/19 06:10:40;;;;;;;15.77;10.83;;;7.70;99.90;;;6.59;100.00;101104.06;5013015;28;20211;-83
2020/12/19 06:13:27;;;;;;;14.90;9.77;;;7.70;99.90;;;6.52;100.00;101102.38;5015164;28;20667;-81
2020/12/19 06:16:13;;;;;;;15.13;11.07;;;7.70;99.90;;;6.54;100.00;101095.50;5010206;28;20215;-83
2020/12/19 06:19:17;;;;;;;15.67;10.53;;;7.70;99.90;;;6.54;100.00;101090.38;5012123;28;20234;-82
2020/12/19 06:22:02;;;;;;;17.13;11.17;;;7.70;99.90;;;6.50;100.00;101103.25;5016619;28;20228;-83
2020/12/19 06:24:49;;;;;;;17.77;11.30;;;7.80;99.90;;;6.63;100.00;101100.63;5016345;28;20230;-84
2020/12/19 06:27:41;;;;;;;16.87;11.17;;;7.80;99.90;;;6.72;100.00;101099.72;5006230;28;20305;-83
2020/12/19 06:30:31;;;;;;;18.47;12.13;;;7.80;99.90;;;6.67;100.00;101103.19;5011617;28;20281;-82
2020/12/19 06:33:17;;;;;;;13.90;8.07;;;7.80;99.90;;;6.60;100.00;101110.91;5009760;28;20281;-84
2020/12/19 06:36:15;;;;;;;13.63;10.53;;;7.80;99.90;;;6.59;100.00;101112.63;5019543;28;20208;-84
2020/12/19 06:39:11;;;;;;;15.27;11.17;;;7.80;99.90;;;6.53;100.00;101104.94;5016305;28;20251;-81
2020/12/19 06:41:58;;;;;;;16.33;10.33;;;7.90;99.90;;;6.48;100.00;101104.09;5014011;28;20232;-81
2020/12/19 06:44:42;;;;;;;14.97;11.77;;;7.90;99.90;;;6.59;100.00;101107.50;5004767;28;20582;-82
2020/12/19 06:47:31;;;;;;;15.87;11.37;;;7.90;99.90;;;6.48;100.00;101104.97;5017634;28;20228;-85
2020/12/19 06:50:19;;;;;;;14.97;9.07;;;7.90;99.90;;;6.38;100.00;101095.59;5010708;28;20204;-83
2020/12/19 06:53:04;;;;;;;18.80;12.00;;;7.90;99.90;;;6.53;100.00;101104.09;5020871;28;20236;-84
2020/12/19 06:55:49;;;;;;;14.60;10.83;;;7.70;99.90;;;6.48;100.00;101106.66;5034932;28;20227;-83
2020/12/19 06:58:35;;;;;;;14.63;11.43;;;7.90;99.90;;;6.44;100.00;101099.84;5026984;28;20585;-82
2020/12/19 07:01:30;;;;;;;15.43;10.63;;;7.90;99.90;;;6.40;100.00;101108.44;5011009;28;20718;-84
2020/12/19 07:04:32;;;;;;;17.73;11.57;;;7.90;99.90;;;6.31;100.00;101102.44;5018064;28;20236;-83
2020/12/19 07:07:24;;;;;;;17.17;10.93;;;7.90;99.90;;;6.27;100.00;101102.47;5024566;28;20225;-84
2020/12/19 07:10:09;;;;;;;17.10;11.90;;;7.90;99.90;;;6.45;100.00;101094.72;5022334;28;20748;-83
2020/12/19 07:12:55;;;;;;;15.60;10.40;;;7.90;99.90;;;6.38;100.00;101099.84;5024646;28;20255;-81
2020/12/19 07:15:42;;;;;;;15.87;11.07;;;7.90;99.90;;;6.31;100.00;101105.03;5024288;28;20226;-80
2020/12/19 07:18:29;;;;;;;17.93;11.43;;;7.90;99.90;;;6.51;100.00;101096.41;5025523;28;20205;-80
2020/12/19 07:21:15;;;;;;;17.17;11.93;;;7.90;99.90;;;6.50;100.00;101090.38;5021244;28;20281;-81
2020/12/19 07:24:01;;;;;;;15.27;10.93;;;7.90;99.90;;;6.61;100.00;101086.91;5005773;28;20208;-81
2020/12/19 07:26:47;;;;;;;16.87;10.43;;;7.90;99.90;;;6.58;100.00;101089.50;5009315;28;20596;-81
2020/12/19 07:29:33;;;;;;;16.20;11.70;;;7.90;99.90;;;6.45;100.00;101091.25;5015811;28;20212;-81
2020/12/19 07:32:18;;;;;;;17.80;11.83;;;7.90;99.90;;;6.41;100.00;101089.59;5021698;28;20328;-80
2020/12/19 07:35:03;;;;;;;15.93;12.13;;;7.90;99.90;;;6.53;100.00;101093.81;5021669;28;20284;-81
2020/12/19 07:37:50;;;;;;;17.40;11.93;;;7.90;99.90;;;6.63;100.00;101103.22;5010414;28;20291;-80
2020/12/19 07:40:36;;;;;;;16.73;12.17;;;7.90;99.90;;;6.58;100.00;101103.19;5005004;28;20224;-81
2020/12/19 07:43:38;;;;;;;17.70;12.23;;;7.90;99.90;;;6.53;100.00;101089.53;5006004;28;20489;-80
2020/12/19 07:46:24;;;;;;;16.30;10.77;;;7.90;99.90;;;6.55;100.00;101103.22;4994215;28;20247;-81
2020/12/19 07:49:09;;;;;;;20.87;12.60;;;7.90;99.90;;;6.44;100.00;101098.13;5014992;28;20219;-80
2020/12/19 07:52:22;;;;;;;19.33;12.00;;;7.90;99.90;;;6.45;100.00;101101.53;5017696;28;20247;-80
2020/12/19 07:55:07;;;;;;;16.70;12.80;;;7.90;99.90;;;6.47;100.00;101103.25;4986471;28;20216;-80
2020/12/19 07:57:54;;;;;;;18.33;12.77;;;7.90;99.90;;;6.56;100.00;101104.94;5011995;28;20220;-79
2020/12/19 08:00:39;;;;;;;17.33;12.57;;;7.90;99.90;;;6.49;100.00;101111.81;5017996;28;20275;-79
2020/12/19 08:03:24;;;;;;;17.37;11.17;;;7.90;99.90;;;6.58;100.00;101107.50;5004417;28;20216;-80
2020/12/19 08:06:09;;;;;;;21.07;12.87;;;8.00;99.90;;;6.75;100.00;101107.44;5012257;28;20267;-81
2020/12/19 08:08:57;;;;;;;16.87;11.60;;;8.00;99.90;;;6.78;100.00;101109.97;5011250;28;20211;-81
2020/12/19 08:11:47;;;;;;;17.27;12.30;;;8.00;99.90;;;6.90;100.00;101104.75;5004884;28;20603;-81
2020/12/19 08:14:34;;;;;;;19.00;12.70;;;8.00;99.90;;;6.75;100.00;101097.16;5009084;28;20585;-81
2020/12/19 08:17:20;;;;;;;16.20;12.00;;;8.00;99.90;;;6.73;100.00;101093.72;5011243;28;20295;-81
2020/12/19 08:20:06;;;;;;;16.63;10.50;;;8.00;99.90;;;6.57;100.00;101091.22;5011614;28;20620;-81
2020/12/19 08:22:52;;;;;;;17.03;13.00;;;8.10;99.90;;;6.77;100.00;101080.81;5010402;28;20236;-80
2020/12/19 08:25:38;;;;;;;20.60;11.70;;;8.10;99.90;;;6.75;100.00;101089.44;5016267;28;20225;-81
2020/12/19 08:28:24;;;;;;;19.83;12.50;;;8.10;99.90;;;6.79;100.00;101085.97;5014136;28;20231;-79
2020/12/19 08:31:19;;;;;;;18.47;12.10;;;8.10;99.90;;;6.92;100.00;101087.59;5014303;28;20219;-80
2020/12/19 08:34:10;;;;;;;20.27;12.67;;;8.10;99.90;;;6.89;100.00;101087.63;5012323;28;20208;-81
2020/12/19 08:36:55;;;;;;;18.27;10.67;;;8.10;99.90;;;7.01;100.00;101092.72;5012898;28;20221;-81
2020/12/19 08:39:40;;;;;;;15.67;10.40;;;8.20;99.90;;;7.15;100.00;101084.03;5010672;28;20256;-78
2020/12/19 08:42:30;;;;;;;18.83;11.83;;;8.20;99.90;;;7.27;100.00;101094.22;5007603;28;20278;-84
2020/12/19 08:45:22;;;;;;;14.87;9.60;;;8.20;99.90;;;7.35;100.00;101091.59;5005521;28;20216;-81
2020/12/19 08:48:20;;;;;;;17.47;11.93;;;8.30;99.90;;;7.68;100.00;101087.88;5014903;28;20219;-81
2020/12/19 08:51:09;;;;;;;18.07;11.63;;;8.30;99.90;;;8.39;100.00;101081.97;5008860;28;20200;-79
2020/12/19 08:54:10;;;;;;;16.43;11.07;;;8.30;99.90;;;8.99;100.00;101085.53;5009791;28;20204;-81
2020/12/19 08:56:55;;;;;;;13.67;8.47;;;8.40;99.90;;;9.30;100.00;101085.03;5010027;28;20212;-81
2020/12/19 08:59:40;;;;;;;14.90;11.50;;;8.50;99.90;;;9.41;100.00;101087.47;5010759;28;20213;-79
2020/12/19 09:02:26;;;;;;;16.13;10.83;;;8.70;99.90;;;9.47;100.00;101097.69;5018395;28;20646;-81
2020/12/19 09:05:12;;;;;;;15.37;11.23;;;8.90;99.90;;;9.56;100.00;101105.25;5020316;28;20295;-81
2020/12/19 09:07:57;;;;;;;16.60;11.20;;;9.10;99.90;;;9.78;100.00;101103.16;5011999;28;20260;-82
2020/12/19 09:10:43;;;;;;;14.90;10.10;;;9.30;99.90;;;9.92;100.00;101104.66;5011244;28;20203;-81
2020/12/19 09:13:28;;;;;;;14.93;10.00;;;9.60;99.90;;;9.90;100.00;101109.84;5004187;28;20208;-82
2020/12/19 09:16:13;;;;;;;13.60;8.93;;;9.80;99.90;;;10.02;100.00;101113.94;5016905;28;20204;-83
2020/12/19 09:18:58;;;;;;;18.43;10.33;;;10.10;99.90;;;10.04;100.00;101119.06;5008793;28;20215;-82
2020/12/19 09:25:59;;;;;;;14.20;9.57;;;10.60;99.90;;;10.50;100.00;101133.75;4948002;28;20218;-82
2020/12/19 09:32:48;;;;;;;15.30;9.40;;;11.20;99.90;;;10.73;100.00;101148.78;4997665;28;20299;-81
2020/12/19 09:35:33;;;;;;;14.97;9.53;;;11.50;99.90;;;10.95;100.00;101143.16;5001439;28;20269;-81
2020/12/19 09:38:18;;;;;;;12.43;9.17;;;11.70;99.90;;;10.98;100.00;101145.69;5016658;28;20228;-82
2020/12/19 09:41:08;;;;;;;15.03;10.03;;;11.80;99.90;;;11.23;100.00;101140.81;5008160;28;20235;-83
2020/12/19 09:43:53;;;;;;;12.17;8.90;;;12.10;99.90;;;11.27;100.00;101144.19;5008419;28;20217;-82
2020/12/19 09:46:38;;;;;;;12.60;8.80;;;12.20;99.90;;;11.44;100.00;101143.78;5011888;28;20224;-83
2020/12/19 09:49:23;;;;;;;12.60;9.30;;;12.50;99.90;;;11.61;100.00;101141.63;5015287;28;20696;-83
2020/12/19 09:52:09;;;;;;;12.47;8.73;;;12.70;99.90;;;11.68;100.00;101142.34;5013254;28;20224;-80
2020/12/19 09:54:54;;;;;;;11.07;8.20;;;12.90;99.90;;;11.76;100.00;101130.03;5015485;28;20216;-81
2020/12/19 09:57:41;;;;;;;11.70;8.77;;;13.20;99.90;;;11.73;100.00;101140.47;5017253;28;20216;-81
2020/12/19 10:00:25;;;;;;;13.27;8.93;;;13.40;99.90;;;11.98;100.00;101137.28;5019021;28;20229;-82
2020/12/19 10:03:11;;;;;;;13.40;9.97;;;13.60;99.90;;;12.07;100.00;101142.22;5015760;28;20267;-83
2020/12/19 10:05:56;;;;;;;12.47;9.87;;;13.80;99.90;;;11.92;100.00;101138.25;5011362;28;20930;-83
2020/12/19 10:08:41;;;;;;;12.30;9.10;;;14.10;99.90;;;12.27;100.00;101136.50;5006644;28;20268;-86
2020/12/19 10:11:27;;;;;;;13.30;9.23;;;14.30;99.90;;;11.19;100.00;101141.75;5012333;28;20243;-85
2020/12/19 10:14:13;;;;;;;12.60;8.93;;;14.50;99.90;;;11.07;100.00;101140.28;5011746;28;20216;-80
2020/12/19 10:16:58;;;;;;;14.20;9.10;;;14.70;99.90;;;11.26;100.00;101134.69;5011826;28;20740;-84
2020/12/19 10:19:43;;;;;;;12.03;8.93;;;14.90;99.90;;;11.16;100.00;101123.69;5011389;28;20215;-81
2020/12/19 10:22:28;;;;;;;11.57;8.60;;;14.90;99.90;;;11.21;100.00;101122.72;5011378;28;20248;-84
2020/12/19 10:25:14;;;;;;;11.37;8.73;;;15.00;99.90;;;11.40;100.00;101114.50;5011015;28;20215;-83
2020/12/19 10:27:59;;;;;;;11.57;8.70;;;15.00;99.90;;;10.96;100.00;101126.75;5010562;28;20636;-83
2020/12/19 10:30:46;;;;;;;10.80;7.93;;;15.10;99.90;;;10.65;100.00;101111.88;5009861;28;20255;-80
2020/12/19 10:33:31;;;;;;;11.60;9.17;;;15.10;99.90;;;10.91;100.00;101100.09;5015393;28;20248;-84
2020/12/19 10:36:16;;;;;;;12.83;8.70;;;15.00;99.90;;;11.24;100.00;101098.47;5009034;28;20213;-83
2020/12/19 10:39:01;;;;;;;13.03;9.00;;;15.00;99.90;;;11.04;100.00;101093.75;5012710;28;20281;-84
2020/12/19 10:41:50;;;;;;;10.93;8.20;;;14.90;99.90;;;10.53;100.00;101103.50;5010829;28;20252;-83
2020/12/19 10:44:35;;;;;;;12.20;8.20;;;14.90;99.90;;;10.40;100.00;101086.53;5012440;28;20212;-83
2020/12/19 10:47:21;;;;;;;10.97;8.93;;;14.80;99.90;;;10.39;100.00;101086.56;5011695;28;20223;-83
2020/12/19 10:50:06;;;;;;;10.00;7.63;;;14.80;99.90;;;10.74;100.00;101072.88;5011679;28;20212;-83
2020/12/19 10:52:51;;;;;;;12.07;9.00;;;14.70;99.90;;;10.82;100.00;101077.88;5015255;28;20255;-82
2020/12/19 10:55:38;;;;;;;12.30;8.20;;;14.50;99.90;;;10.76;100.00;101065.06;5018353;28;20317;-82
2020/12/19 10:58:22;;;;;;;11.57;7.90;;;14.40;99.90;;;10.64;100.00;101067.03;5016833;28;20689;-81
2020/12/19 11:01:08;;;;;;;12.70;8.00;;;14.40;99.90;;;10.72;100.00;101051.38;5014198;28;20208;-83
2020/12/19 11:03:54;;;;;;;9.50;7.00;;;14.30;99.90;;;10.60;100.00;101060.25;5018364;28;20656;-82
2020/12/19 11:06:39;;;;;;;9.50;7.00;;;14.20;99.90;;;10.49;100.00;101063.03;5017843;28;20331;-81
2020/12/19 11:09:24;;;;;;;12.07;8.03;;;14.10;99.90;;;10.47;100.00;101062.25;5014043;28;20231;-83
2020/12/19 11:12:10;;;;;;;12.47;8.43;;;14.00;99.90;;;10.48;100.00;101043.25;5016308;28;20235;-82
2020/12/19 11:14:55;;;;;;;12.13;8.07;;;13.80;99.90;;;10.71;100.00;101037.56;5014774;28;20200;-83
2020/12/19 11:17:40;;;;;;;10.63;7.03;;;13.80;99.90;;;11.03;100.00;101046.31;5014240;28;20325;-83
2020/12/19 11:20:26;;;;;;;12.47;8.27;;;13.70;99.90;;;11.39;100.00;101033.34;5017919;28;20227;-83
2020/12/19 11:23:11;;;;;;;16.77;8.07;;;13.60;99.90;;;11.06;100.00;101029.88;5003412;28;20250;-83
2020/12/19 11:25:57;;;;;;;11.27;7.47;;;13.60;99.90;;;11.02;100.00;101012.72;5024535;28;20211;-83
2020/12/19 11:28:41;;;;;;;10.87;7.50;;;13.60;99.90;;;11.09;100.00;101027.22;5027034;28;20231;-81
2020/12/19 11:31:28;;;;;;;11.23;7.53;;;13.70;99.90;;;12.80;100.00;101016.44;5021149;28;20227;-81